SWR457 EGLC-LSZH
Flight info
| Callsign | SWR457 |
|---|---|
| Flight time | 1h 24m |
| Altitude | 27000 |
| Route | SOQQA M87 UMTUM L9 KONAN UL607 REMBA DCT LIRSU DCT KRH M150 LAMGO T721 RILAX |
| Aircraft | RJ1H/M-SDFGIRWY/LB1 |
Departure
| Time | 2026-05-01 09:33 |
|---|---|
| Airport | London City Airport (EGLC) |
Arrival
| Time | 2026-05-01 10:58 |
|---|---|
| Airport | Zürich Airport (LSZH) |
| Time | Latitude | Longitude | Altitude | Speed | Heading |
|---|---|---|---|---|---|
| 2026-05-01 09:03 | 51.50410 | 0.05347 | 25 ft | 0 kts | 326° |
| 2026-05-01 09:28 | 51.50412 | 0.05345 | 27 ft | 1 kts | 326° |
| 2026-05-01 09:28 | 51.50421 | 0.05335 | 27 ft | 2 kts | 323° |
| 2026-05-01 09:28 | 51.50440 | 0.05295 | 27 ft | 6 kts | 285° |
| 2026-05-01 09:29 | 51.50451 | 0.05112 | 27 ft | 9 kts | 274° |
| 2026-05-01 09:29 | 51.50461 | 0.05010 | 27 ft | 8 kts | 276° |
| 2026-05-01 09:30 | 51.50465 | 0.04837 | 27 ft | 8 kts | 274° |
| 2026-05-01 09:30 | 51.50469 | 0.04748 | 26 ft | 8 kts | 273° |
| 2026-05-01 09:30 | 51.50473 | 0.04606 | 28 ft | 5 kts | 273° |
| 2026-05-01 09:31 | 51.50475 | 0.04543 | 26 ft | 6 kts | 270° |
| 2026-05-01 09:31 | 51.50479 | 0.04479 | 27 ft | 5 kts | 290° |
| 2026-05-01 09:31 | 51.50527 | 0.04438 | 26 ft | 4 kts | 359° |
| 2026-05-01 09:32 | 51.50554 | 0.04448 | 25 ft | 3 kts | 51° |
| 2026-05-01 09:32 | 51.50551 | 0.04609 | 25 ft | 44 kts | 92° |
| 2026-05-01 09:32 | 51.50524 | 0.05464 | 25 ft | 106 kts | 93° |
| 2026-05-01 09:33 | 51.50489 | 0.06780 | 255 ft | 124 kts | 91° |
| 2026-05-01 09:33 | 51.50447 | 0.08210 | 673 ft | 131 kts | 91° |
| 2026-05-01 09:33 | 51.50997 | 0.11115 | 1506 ft | 157 kts | 41° |
| 2026-05-01 09:34 | 51.51855 | 0.12210 | 2113 ft | 160 kts | 43° |
| 2026-05-01 09:34 | 51.52737 | 0.13474 | 2530 ft | 185 kts | 43° |
| 2026-05-01 09:34 | 51.55076 | 0.16533 | 2915 ft | 235 kts | 51° |
| 2026-05-01 09:35 | 51.55776 | 0.18798 | 2972 ft | 222 kts | 80° |
| 2026-05-01 09:35 | 51.56411 | 0.23696 | 3033 ft | 245 kts | 81° |
| 2026-05-01 09:35 | 51.56974 | 0.26436 | 3089 ft | 262 kts | 71° |
| 2026-05-01 09:36 | 51.57707 | 0.29126 | 3054 ft | 263 kts | 69° |
| 2026-05-01 09:36 | 51.58467 | 0.31790 | 3084 ft | 263 kts | 68° |
| 2026-05-01 09:36 | 51.59253 | 0.34427 | 3047 ft | 264 kts | 68° |
| 2026-05-01 09:36 | 51.60050 | 0.37074 | 3074 ft | 263 kts | 67° |
| 2026-05-01 09:37 | 51.60745 | 0.39810 | 3084 ft | 259 kts | 83° |
| 2026-05-01 09:37 | 51.60130 | 0.45361 | 3938 ft | 257 kts | 103° |
| 2026-05-01 09:37 | 51.59839 | 0.48220 | 4366 ft | 260 kts | 102° |
| 2026-05-01 09:38 | 51.59224 | 0.53998 | 5277 ft | 264 kts | 102° |
| 2026-05-01 09:38 | 51.58771 | 0.56856 | 5715 ft | 263 kts | 121° |
| 2026-05-01 09:38 | 51.57508 | 0.58872 | 6112 ft | 259 kts | 156° |
| 2026-05-01 09:39 | 51.53953 | 0.59868 | 6952 ft | 262 kts | 173° |
| 2026-05-01 09:39 | 51.52135 | 0.60208 | 7370 ft | 264 kts | 174° |
| 2026-05-01 09:39 | 51.50293 | 0.60528 | 7773 ft | 267 kts | 173° |
| 2026-05-01 09:40 | 51.48442 | 0.60862 | 8210 ft | 269 kts | 173° |
| 2026-05-01 09:40 | 51.44688 | 0.61626 | 9122 ft | 273 kts | 172° |
| 2026-05-01 09:40 | 51.42797 | 0.62066 | 9577 ft | 275 kts | 171° |
| 2026-05-01 09:41 | 51.40917 | 0.62628 | 10071 ft | 276 kts | 161° |
| 2026-05-01 09:41 | 51.38151 | 0.66839 | 11099 ft | 283 kts | 129° |
| 2026-05-01 09:41 | 51.36956 | 0.69353 | 11693 ft | 283 kts | 129° |
| 2026-05-01 09:42 | 51.35767 | 0.71879 | 12298 ft | 285 kts | 129° |
| 2026-05-01 09:42 | 51.34589 | 0.74388 | 12881 ft | 286 kts | 129° |
| 2026-05-01 09:42 | 51.32146 | 0.79460 | 14037 ft | 290 kts | 130° |
| 2026-05-01 09:43 | 51.29617 | 0.84534 | 15083 ft | 293 kts | 131° |
| 2026-05-01 09:43 | 51.28330 | 0.87082 | 15578 ft | 296 kts | 131° |
| 2026-05-01 09:43 | 51.27018 | 0.89620 | 16067 ft | 297 kts | 132° |
| 2026-05-01 09:44 | 51.24392 | 0.94747 | 16959 ft | 300 kts | 131° |
| 2026-05-01 09:44 | 51.23069 | 0.97352 | 17387 ft | 302 kts | 131° |
| 2026-05-01 09:44 | 51.21733 | 0.99941 | 17798 ft | 303 kts | 131° |
| 2026-05-01 09:45 | 51.20686 | 1.02883 | 18165 ft | 310 kts | 112° |
| 2026-05-01 09:45 | 51.19632 | 1.09630 | 18841 ft | 317 kts | 105° |
| 2026-05-01 09:45 | 51.19192 | 1.13078 | 19161 ft | 319 kts | 105° |
| 2026-05-01 09:46 | 51.18768 | 1.16561 | 19477 ft | 320 kts | 104° |
| 2026-05-01 09:46 | 51.18351 | 1.20057 | 19781 ft | 322 kts | 105° |
| 2026-05-01 09:46 | 51.17922 | 1.23563 | 20067 ft | 323 kts | 105° |
| 2026-05-01 09:46 | 51.17481 | 1.27085 | 20341 ft | 324 kts | 105° |
| 2026-05-01 09:47 | 51.17020 | 1.30562 | 20619 ft | 325 kts | 106° |
| 2026-05-01 09:47 | 51.16535 | 1.34133 | 20897 ft | 326 kts | 106° |
| 2026-05-01 09:47 | 51.16128 | 1.37659 | 21135 ft | 330 kts | 101° |
| 2026-05-01 09:47 | 51.15908 | 1.41314 | 21386 ft | 332 kts | 98° |
| 2026-05-01 09:48 | 51.15741 | 1.44996 | 21630 ft | 334 kts | 98° |
| 2026-05-01 09:48 | 51.15591 | 1.48698 | 21873 ft | 336 kts | 97° |
| 2026-05-01 09:48 | 51.15447 | 1.52460 | 21874 ft | 345 kts | 97° |
| 2026-05-01 09:48 | 51.15297 | 1.56332 | 21886 ft | 354 kts | 97° |
| 2026-05-01 09:49 | 51.15131 | 1.60288 | 21903 ft | 362 kts | 98° |
| 2026-05-01 09:49 | 51.14935 | 1.64325 | 21922 ft | 369 kts | 98° |
| 2026-05-01 09:49 | 51.14727 | 1.68416 | 21940 ft | 376 kts | 98° |
| 2026-05-01 09:49 | 51.14506 | 1.72613 | 22027 ft | 381 kts | 98° |
| 2026-05-01 09:50 | 51.14308 | 1.76819 | 22274 ft | 381 kts | 98° |
| 2026-05-01 09:50 | 51.14096 | 1.81028 | 22535 ft | 381 kts | 98° |
| 2026-05-01 09:50 | 51.13878 | 1.85157 | 22800 ft | 380 kts | 98° |
| 2026-05-01 09:50 | 51.13653 | 1.89400 | 23072 ft | 379 kts | 98° |
| 2026-05-01 09:51 | 51.13430 | 1.93587 | 23309 ft | 379 kts | 98° |
| 2026-05-01 09:51 | 51.13224 | 1.97772 | 23562 ft | 379 kts | 98° |
| 2026-05-01 09:51 | 51.13006 | 2.01952 | 23817 ft | 378 kts | 98° |
| 2026-05-01 09:51 | 51.12781 | 2.06128 | 24052 ft | 378 kts | 98° |
| 2026-05-01 09:52 | 51.12567 | 2.10295 | 24299 ft | 378 kts | 97° |
| 2026-05-01 09:52 | 51.12361 | 2.14413 | 24551 ft | 377 kts | 97° |
| 2026-05-01 09:52 | 51.12152 | 2.18578 | 24785 ft | 377 kts | 97° |
| 2026-05-01 09:52 | 51.11928 | 2.22737 | 25026 ft | 377 kts | 98° |
| 2026-05-01 09:53 | 51.11685 | 2.26884 | 25271 ft | 376 kts | 98° |
| 2026-05-01 09:53 | 51.11459 | 2.31026 | 25506 ft | 375 kts | 97° |
| 2026-05-01 09:53 | 51.11235 | 2.35168 | 25628 ft | 378 kts | 97° |
| 2026-05-01 09:53 | 51.11005 | 2.39376 | 25627 ft | 384 kts | 97° |
| 2026-05-01 09:54 | 51.10769 | 2.43648 | 25631 ft | 390 kts | 97° |
| 2026-05-01 09:54 | 51.10525 | 2.47970 | 25651 ft | 395 kts | 97° |
| 2026-05-01 09:54 | 51.10272 | 2.52356 | 25663 ft | 400 kts | 97° |
| 2026-05-01 09:54 | 51.10011 | 2.56790 | 25674 ft | 405 kts | 97° |
| 2026-05-01 09:55 | 51.09742 | 2.61277 | 25695 ft | 409 kts | 98° |
| 2026-05-01 09:55 | 51.09320 | 2.65758 | 25829 ft | 409 kts | 103° |
| 2026-05-01 09:55 | 51.08689 | 2.70168 | 26024 ft | 408 kts | 106° |
| 2026-05-01 09:55 | 51.07938 | 2.74524 | 26221 ft | 407 kts | 108° |
| 2026-05-01 09:56 | 51.07150 | 2.78841 | 26412 ft | 407 kts | 108° |
| 2026-05-01 09:56 | 51.06349 | 2.83098 | 26588 ft | 407 kts | 108° |
| 2026-05-01 09:56 | 51.05527 | 2.87397 | 26773 ft | 406 kts | 109° |
| 2026-05-01 09:56 | 51.04717 | 2.91689 | 26979 ft | 405 kts | 108° |
| 2026-05-01 09:57 | 51.03922 | 2.95990 | 27135 ft | 405 kts | 108° |
| 2026-05-01 09:57 | 51.03130 | 3.00260 | 27205 ft | 400 kts | 108° |
| 2026-05-01 09:57 | 51.02345 | 3.04487 | 27227 ft | 399 kts | 108° |
| 2026-05-01 09:57 | 51.01561 | 3.08708 | 27236 ft | 399 kts | 108° |
| 2026-05-01 09:58 | 51.00788 | 3.12944 | 27238 ft | 400 kts | 107° |
| 2026-05-01 09:58 | 51.00011 | 3.17185 | 27246 ft | 401 kts | 108° |
| 2026-05-01 09:58 | 50.99219 | 3.21428 | 27244 ft | 401 kts | 108° |
| 2026-05-01 09:58 | 50.98428 | 3.25680 | 27252 ft | 402 kts | 107° |
| 2026-05-01 09:59 | 50.97649 | 3.29941 | 27253 ft | 403 kts | 107° |
| 2026-05-01 09:59 | 50.96851 | 3.34199 | 27254 ft | 403 kts | 108° |
| 2026-05-01 09:59 | 50.96041 | 3.38460 | 27255 ft | 403 kts | 108° |
| 2026-05-01 09:59 | 50.95253 | 3.42722 | 27254 ft | 404 kts | 107° |
| 2026-05-01 10:00 | 50.94466 | 3.47002 | 27252 ft | 404 kts | 107° |
| 2026-05-01 10:00 | 50.93652 | 3.51276 | 27251 ft | 404 kts | 108° |
| 2026-05-01 10:00 | 50.92839 | 3.55539 | 27251 ft | 404 kts | 107° |
| 2026-05-01 10:00 | 50.92046 | 3.59813 | 27253 ft | 405 kts | 107° |
| 2026-05-01 10:01 | 50.91241 | 3.64086 | 27254 ft | 405 kts | 108° |
| 2026-05-01 10:01 | 50.90412 | 3.68361 | 27256 ft | 405 kts | 108° |
| 2026-05-01 10:01 | 50.89589 | 3.72571 | 27258 ft | 405 kts | 108° |
| 2026-05-01 10:01 | 50.88760 | 3.76832 | 27264 ft | 405 kts | 108° |
| 2026-05-01 10:02 | 50.88213 | 3.79716 | 27266 ft | 405 kts | 107° |
| 2026-05-01 10:02 | 50.87116 | 3.85382 | 27273 ft | 405 kts | 108° |
| 2026-05-01 10:02 | 50.86278 | 3.89643 | 27276 ft | 405 kts | 108° |
| 2026-05-01 10:02 | 50.85457 | 3.93910 | 27277 ft | 405 kts | 108° |
| 2026-05-01 10:03 | 50.84630 | 3.98171 | 27286 ft | 405 kts | 108° |
| 2026-05-01 10:03 | 50.83789 | 4.02435 | 27285 ft | 406 kts | 107° |
| 2026-05-01 10:03 | 50.83242 | 4.05266 | 27285 ft | 407 kts | 107° |
| 2026-05-01 10:03 | 50.82406 | 4.09559 | 27285 ft | 409 kts | 107° |
| 2026-05-01 10:04 | 50.81567 | 4.13855 | 27285 ft | 409 kts | 107° |
| 2026-05-01 10:04 | 50.80727 | 4.18147 | 27284 ft | 409 kts | 107° |
| 2026-05-01 10:04 | 50.79887 | 4.22437 | 27284 ft | 408 kts | 107° |
| 2026-05-01 10:04 | 50.79046 | 4.26720 | 27289 ft | 408 kts | 107° |
| 2026-05-01 10:05 | 50.78203 | 4.31003 | 27291 ft | 408 kts | 107° |
| 2026-05-01 10:05 | 50.77357 | 4.35287 | 27292 ft | 408 kts | 108° |
| 2026-05-01 10:05 | 50.76494 | 4.39546 | 27292 ft | 408 kts | 108° |
| 2026-05-01 10:05 | 50.75635 | 4.43825 | 27290 ft | 408 kts | 107° |
| 2026-05-01 10:06 | 50.74781 | 4.48110 | 27292 ft | 409 kts | 107° |
| 2026-05-01 10:06 | 50.73927 | 4.52390 | 27293 ft | 409 kts | 107° |
| 2026-05-01 10:06 | 50.73071 | 4.56671 | 27294 ft | 409 kts | 107° |
| 2026-05-01 10:06 | 50.72217 | 4.60952 | 27295 ft | 409 kts | 107° |
| 2026-05-01 10:07 | 50.71358 | 4.65232 | 27295 ft | 409 kts | 107° |
| 2026-05-01 10:07 | 50.70516 | 4.69527 | 27297 ft | 410 kts | 107° |
| 2026-05-01 10:07 | 50.69691 | 4.73827 | 27292 ft | 410 kts | 107° |
| 2026-05-01 10:07 | 50.68868 | 4.78136 | 27297 ft | 410 kts | 106° |
| 2026-05-01 10:08 | 50.67182 | 4.86729 | 27293 ft | 410 kts | 107° |
| 2026-05-01 10:08 | 50.66285 | 4.90987 | 27293 ft | 410 kts | 110° |
| 2026-05-01 10:08 | 50.65208 | 4.95156 | 27295 ft | 410 kts | 113° |
| 2026-05-01 10:09 | 50.64025 | 4.99247 | 27295 ft | 411 kts | 115° |
| 2026-05-01 10:09 | 50.62801 | 5.03317 | 27296 ft | 411 kts | 115° |
| 2026-05-01 10:09 | 50.61572 | 5.07332 | 27295 ft | 411 kts | 115° |
| 2026-05-01 10:09 | 50.60320 | 5.11383 | 27292 ft | 411 kts | 115° |
| 2026-05-01 10:10 | 50.59063 | 5.15421 | 27294 ft | 411 kts | 115° |
| 2026-05-01 10:10 | 50.57815 | 5.19473 | 27294 ft | 411 kts | 115° |
| 2026-05-01 10:10 | 50.55350 | 5.27615 | 27295 ft | 412 kts | 115° |
| 2026-05-01 10:11 | 50.54124 | 5.31678 | 27294 ft | 412 kts | 114° |
| 2026-05-01 10:11 | 50.52889 | 5.35754 | 27293 ft | 412 kts | 114° |
| 2026-05-01 10:11 | 50.51657 | 5.39811 | 27292 ft | 412 kts | 115° |
| 2026-05-01 10:11 | 50.50420 | 5.43872 | 27295 ft | 412 kts | 115° |
| 2026-05-01 10:12 | 50.49182 | 5.47931 | 27294 ft | 412 kts | 115° |
| 2026-05-01 10:12 | 50.47943 | 5.51990 | 27294 ft | 412 kts | 115° |
| 2026-05-01 10:12 | 50.45444 | 5.60107 | 27296 ft | 413 kts | 115° |
| 2026-05-01 10:13 | 50.44197 | 5.64164 | 27300 ft | 413 kts | 115° |
| 2026-05-01 10:13 | 50.42946 | 5.68224 | 27300 ft | 413 kts | 115° |
| 2026-05-01 10:13 | 50.41679 | 5.72273 | 27294 ft | 413 kts | 115° |
| 2026-05-01 10:14 | 50.39180 | 5.80316 | 27300 ft | 413 kts | 115° |
| 2026-05-01 10:14 | 50.37907 | 5.84416 | 27300 ft | 413 kts | 115° |
| 2026-05-01 10:14 | 50.36665 | 5.88415 | 27299 ft | 413 kts | 115° |
| 2026-05-01 10:14 | 50.35405 | 5.92462 | 27298 ft | 414 kts | 115° |
| 2026-05-01 10:15 | 50.34150 | 5.96504 | 27297 ft | 414 kts | 115° |
| 2026-05-01 10:15 | 50.32887 | 6.00555 | 27295 ft | 414 kts | 115° |
| 2026-05-01 10:15 | 50.31626 | 6.04592 | 27292 ft | 413 kts | 115° |
| 2026-05-01 10:15 | 50.30359 | 6.08632 | 27297 ft | 413 kts | 115° |
| 2026-05-01 10:16 | 50.29095 | 6.12656 | 27305 ft | 413 kts | 115° |
| 2026-05-01 10:16 | 50.27827 | 6.16693 | 27307 ft | 413 kts | 115° |
| 2026-05-01 10:16 | 50.25289 | 6.24746 | 27308 ft | 414 kts | 115° |
| 2026-05-01 10:17 | 50.23996 | 6.28767 | 27313 ft | 414 kts | 115° |
| 2026-05-01 10:17 | 50.21442 | 6.36820 | 27319 ft | 413 kts | 115° |
| 2026-05-01 10:17 | 50.20169 | 6.40834 | 27319 ft | 413 kts | 115° |
| 2026-05-01 10:18 | 50.17114 | 6.48441 | 27319 ft | 415 kts | 126° |
| 2026-05-01 10:18 | 50.15311 | 6.51967 | 27323 ft | 416 kts | 128° |
| 2026-05-01 10:18 | 50.13447 | 6.55407 | 27323 ft | 416 kts | 129° |
| 2026-05-01 10:19 | 50.11556 | 6.58822 | 27324 ft | 416 kts | 129° |
| 2026-05-01 10:19 | 50.09655 | 6.62225 | 27323 ft | 416 kts | 129° |
| 2026-05-01 10:19 | 50.07793 | 6.65599 | 27321 ft | 416 kts | 129° |
| 2026-05-01 10:20 | 50.04035 | 6.72448 | 27321 ft | 416 kts | 129° |
| 2026-05-01 10:20 | 50.02164 | 6.75880 | 27323 ft | 416 kts | 128° |
| 2026-05-01 10:20 | 50.00307 | 6.79328 | 27325 ft | 416 kts | 129° |
| 2026-05-01 10:20 | 49.98436 | 6.82753 | 27319 ft | 416 kts | 129° |
| 2026-05-01 10:21 | 49.96560 | 6.86174 | 27318 ft | 416 kts | 128° |
| 2026-05-01 10:21 | 49.92827 | 6.93035 | 27327 ft | 416 kts | 129° |
| 2026-05-01 10:21 | 49.90949 | 6.96450 | 27332 ft | 416 kts | 128° |
| 2026-05-01 10:22 | 49.87201 | 7.03287 | 27331 ft | 416 kts | 129° |
| 2026-05-01 10:22 | 49.83445 | 7.10111 | 27338 ft | 416 kts | 128° |
| 2026-05-01 10:23 | 49.81568 | 7.13530 | 27337 ft | 416 kts | 129° |
| 2026-05-01 10:23 | 49.77797 | 7.20337 | 27333 ft | 416 kts | 128° |
| 2026-05-01 10:23 | 49.75922 | 7.23748 | 27336 ft | 416 kts | 129° |
| 2026-05-01 10:24 | 49.72134 | 7.30526 | 27336 ft | 417 kts | 129° |
| 2026-05-01 10:24 | 49.68366 | 7.37337 | 27332 ft | 417 kts | 129° |
| 2026-05-01 10:25 | 49.64571 | 7.44098 | 27333 ft | 417 kts | 129° |
| 2026-05-01 10:25 | 49.60795 | 7.50879 | 27330 ft | 417 kts | 129° |
| 2026-05-01 10:26 | 49.58899 | 7.54252 | 27327 ft | 417 kts | 129° |
| 2026-05-01 10:26 | 49.57015 | 7.57590 | 27318 ft | 417 kts | 129° |
| 2026-05-01 10:26 | 49.53229 | 7.64355 | 27319 ft | 417 kts | 129° |
| 2026-05-01 10:27 | 49.49429 | 7.71100 | 27312 ft | 417 kts | 129° |
| 2026-05-01 10:27 | 49.45616 | 7.77830 | 27310 ft | 417 kts | 129° |
| 2026-05-01 10:28 | 49.43710 | 7.81188 | 27316 ft | 417 kts | 129° |
| 2026-05-01 10:28 | 49.39899 | 7.87901 | 27319 ft | 417 kts | 129° |
| 2026-05-01 10:28 | 49.37995 | 7.91250 | 27318 ft | 417 kts | 129° |
| 2026-05-01 10:29 | 49.34176 | 7.97956 | 27323 ft | 417 kts | 129° |
| 2026-05-01 10:29 | 49.32267 | 8.01306 | 27323 ft | 417 kts | 129° |
| 2026-05-01 10:30 | 49.28454 | 8.08020 | 27337 ft | 417 kts | 128° |
| 2026-05-01 10:30 | 49.24651 | 8.14669 | 27341 ft | 418 kts | 129° |
| 2026-05-01 10:31 | 49.20817 | 8.21357 | 27337 ft | 418 kts | 129° |
| 2026-05-01 10:31 | 49.16972 | 8.28014 | 27337 ft | 417 kts | 128° |
| 2026-05-01 10:32 | 49.13130 | 8.34672 | 27339 ft | 418 kts | 129° |
| 2026-05-01 10:32 | 49.11198 | 8.37983 | 27340 ft | 418 kts | 129° |
| 2026-05-01 10:32 | 49.07379 | 8.44635 | 27331 ft | 418 kts | 128° |
| 2026-05-01 10:33 | 49.03530 | 8.51273 | 27335 ft | 418 kts | 129° |
| 2026-05-01 10:33 | 48.99648 | 8.57857 | 27336 ft | 417 kts | 128° |
| 2026-05-01 10:34 | 48.97756 | 8.61210 | 27343 ft | 417 kts | 127° |
| 2026-05-01 10:34 | 48.95902 | 8.64601 | 27343 ft | 417 kts | 127° |
| 2026-05-01 10:34 | 48.94060 | 8.68012 | 27343 ft | 417 kts | 127° |
| 2026-05-01 10:35 | 48.89858 | 8.74038 | 27351 ft | 424 kts | 153° |
| 2026-05-01 10:35 | 48.87007 | 8.75253 | 27368 ft | 429 kts | 171° |
| 2026-05-01 10:35 | 48.84031 | 8.75744 | 27357 ft | 431 kts | 173° |
| 2026-05-01 10:35 | 48.81020 | 8.75842 | 27350 ft | 434 kts | 181° |
| 2026-05-01 10:36 | 48.75034 | 8.74610 | 27338 ft | 435 kts | 189° |
| 2026-05-01 10:36 | 48.72059 | 8.73752 | 27323 ft | 435 kts | 190° |
| 2026-05-01 10:36 | 48.69131 | 8.72870 | 27324 ft | 435 kts | 190° |
| 2026-05-01 10:37 | 48.66157 | 8.71990 | 27325 ft | 435 kts | 189° |
| 2026-05-01 10:37 | 48.60207 | 8.70353 | 27321 ft | 435 kts | 188° |
| 2026-05-01 10:37 | 48.57227 | 8.69563 | 27317 ft | 435 kts | 188° |
| 2026-05-01 10:38 | 48.54248 | 8.68780 | 27317 ft | 435 kts | 188° |
| 2026-05-01 10:38 | 48.51264 | 8.67998 | 27318 ft | 435 kts | 188° |
| 2026-05-01 10:38 | 48.48283 | 8.67216 | 27322 ft | 435 kts | 188° |
| 2026-05-01 10:38 | 48.45302 | 8.66436 | 27322 ft | 435 kts | 188° |
| 2026-05-01 10:39 | 48.42316 | 8.65662 | 27319 ft | 434 kts | 188° |
| 2026-05-01 10:39 | 48.39342 | 8.64891 | 27319 ft | 434 kts | 188° |
| 2026-05-01 10:39 | 48.36379 | 8.64067 | 27323 ft | 434 kts | 190° |
| 2026-05-01 10:39 | 48.33406 | 8.63179 | 27327 ft | 434 kts | 190° |
| 2026-05-01 10:40 | 48.30451 | 8.62280 | 27332 ft | 434 kts | 190° |
| 2026-05-01 10:40 | 48.27492 | 8.61370 | 27330 ft | 434 kts | 190° |
| 2026-05-01 10:40 | 48.24533 | 8.60456 | 27322 ft | 434 kts | 191° |
| 2026-05-01 10:40 | 48.21573 | 8.59539 | 27328 ft | 434 kts | 190° |
| 2026-05-01 10:41 | 48.18621 | 8.58628 | 27333 ft | 434 kts | 190° |
| 2026-05-01 10:41 | 48.15658 | 8.57736 | 27330 ft | 434 kts | 190° |
| 2026-05-01 10:41 | 48.09719 | 8.56002 | 27326 ft | 435 kts | 190° |
| 2026-05-01 10:42 | 48.06752 | 8.55102 | 27330 ft | 435 kts | 190° |
| 2026-05-01 10:42 | 48.03785 | 8.54199 | 27260 ft | 436 kts | 190° |
| 2026-05-01 10:42 | 48.00806 | 8.53333 | 27012 ft | 437 kts | 189° |
| 2026-05-01 10:42 | 47.97801 | 8.52697 | 26761 ft | 434 kts | 178° |
| 2026-05-01 10:43 | 47.94806 | 8.53121 | 26536 ft | 433 kts | 168° |
| 2026-05-01 10:43 | 47.91940 | 8.54230 | 26301 ft | 430 kts | 156° |
| 2026-05-01 10:43 | 47.89246 | 8.56123 | 26077 ft | 427 kts | 148° |
| 2026-05-01 10:43 | 47.86704 | 8.58399 | 25837 ft | 427 kts | 144° |
| 2026-05-01 10:44 | 47.84218 | 8.60825 | 25320 ft | 419 kts | 143° |
| 2026-05-01 10:44 | 47.81884 | 8.63163 | 24348 ft | 394 kts | 143° |
| 2026-05-01 10:44 | 47.79661 | 8.65412 | 23144 ft | 379 kts | 143° |
| 2026-05-01 10:44 | 47.77496 | 8.67571 | 21876 ft | 369 kts | 143° |
| 2026-05-01 10:45 | 47.75385 | 8.69659 | 20586 ft | 360 kts | 143° |
| 2026-05-01 10:45 | 47.73312 | 8.71683 | 19280 ft | 352 kts | 143° |
| 2026-05-01 10:45 | 47.71289 | 8.73630 | 17958 ft | 343 kts | 144° |
| 2026-05-01 10:45 | 47.69299 | 8.75519 | 16643 ft | 336 kts | 144° |
| 2026-05-01 10:46 | 47.67330 | 8.77326 | 15319 ft | 332 kts | 151° |
| 2026-05-01 10:46 | 47.65053 | 8.78069 | 14620 ft | 341 kts | 179° |
| 2026-05-01 10:46 | 47.62761 | 8.77228 | 14139 ft | 342 kts | 206° |
| 2026-05-01 10:46 | 47.60903 | 8.75043 | 13614 ft | 343 kts | 231° |
| 2026-05-01 10:47 | 47.59813 | 8.71944 | 13137 ft | 340 kts | 254° |
| 2026-05-01 10:47 | 47.59258 | 8.68542 | 12654 ft | 338 kts | 257° |
| 2026-05-01 10:47 | 47.58676 | 8.65185 | 12199 ft | 335 kts | 256° |
| 2026-05-01 10:47 | 47.58431 | 8.61822 | 11804 ft | 315 kts | 277° |
| 2026-05-01 10:48 | 47.59166 | 8.58851 | 11029 ft | 311 kts | 309° |
| 2026-05-01 10:48 | 47.60526 | 8.56527 | 10398 ft | 292 kts | 316° |
| 2026-05-01 10:48 | 47.61984 | 8.54415 | 9328 ft | 291 kts | 319° |
| 2026-05-01 10:48 | 47.63483 | 8.52427 | 8301 ft | 288 kts | 320° |
| 2026-05-01 10:49 | 47.64518 | 8.51119 | 7975 ft | 295 kts | 321° |
| 2026-05-01 10:49 | 47.66546 | 8.48513 | 7728 ft | 289 kts | 320° |
| 2026-05-01 10:49 | 47.68038 | 8.46528 | 7458 ft | 288 kts | 319° |
| 2026-05-01 10:49 | 47.69517 | 8.44532 | 7232 ft | 287 kts | 319° |
| 2026-05-01 10:50 | 47.70990 | 8.42540 | 6990 ft | 286 kts | 318° |
| 2026-05-01 10:50 | 47.72439 | 8.40535 | 6773 ft | 285 kts | 316° |
| 2026-05-01 10:50 | 47.73329 | 8.39055 | 6606 ft | 285 kts | 303° |
| 2026-05-01 10:50 | 47.73924 | 8.36285 | 6326 ft | 284 kts | 270° |
| 2026-05-01 10:51 | 47.73478 | 8.33448 | 6138 ft | 285 kts | 238° |
| 2026-05-01 10:51 | 47.72352 | 8.31085 | 6052 ft | 283 kts | 229° |
| 2026-05-01 10:51 | 47.71034 | 8.28884 | 6044 ft | 281 kts | 217° |
| 2026-05-01 10:51 | 47.69346 | 8.27769 | 6039 ft | 262 kts | 183° |
| 2026-05-01 10:52 | 47.67613 | 8.28101 | 5839 ft | 249 kts | 155° |
| 2026-05-01 10:52 | 47.66111 | 8.29297 | 5641 ft | 243 kts | 145° |
| 2026-05-01 10:52 | 47.64766 | 8.30792 | 5451 ft | 240 kts | 138° |
| 2026-05-01 10:52 | 47.63549 | 8.32473 | 5194 ft | 239 kts | 134° |
| 2026-05-01 10:53 | 47.62368 | 8.34208 | 4902 ft | 239 kts | 134° |
| 2026-05-01 10:53 | 47.61190 | 8.35898 | 4683 ft | 227 kts | 136° |
| 2026-05-01 10:53 | 47.60104 | 8.37401 | 4444 ft | 200 kts | 135° |
| 2026-05-01 10:53 | 47.59128 | 8.38734 | 4148 ft | 181 kts | 136° |
| 2026-05-01 10:54 | 47.58233 | 8.39942 | 3808 ft | 168 kts | 136° |
| 2026-05-01 10:54 | 47.57375 | 8.41125 | 3613 ft | 167 kts | 139° |
| 2026-05-01 10:54 | 47.56507 | 8.42272 | 3308 ft | 167 kts | 135° |
| 2026-05-01 10:54 | 47.55650 | 8.43452 | 3031 ft | 167 kts | 135° |
| 2026-05-01 10:55 | 47.54819 | 8.44609 | 2801 ft | 163 kts | 134° |
| 2026-05-01 10:55 | 47.54001 | 8.45755 | 2643 ft | 162 kts | 136° |
| 2026-05-01 10:55 | 47.53164 | 8.46831 | 2561 ft | 156 kts | 137° |
| 2026-05-01 10:55 | 47.52389 | 8.47884 | 2355 ft | 148 kts | 135° |
| 2026-05-01 10:56 | 47.51647 | 8.48910 | 2221 ft | 141 kts | 133° |
| 2026-05-01 10:56 | 47.50927 | 8.49920 | 2089 ft | 143 kts | 135° |
| 2026-05-01 10:56 | 47.50197 | 8.50865 | 1990 ft | 137 kts | 136° |
| 2026-05-01 10:56 | 47.49503 | 8.51832 | 1806 ft | 137 kts | 135° |
| 2026-05-01 10:57 | 47.48807 | 8.52791 | 1632 ft | 136 kts | 135° |
| 2026-05-01 10:57 | 47.48123 | 8.53733 | 1440 ft | 132 kts | 136° |
| 2026-05-01 10:57 | 47.47495 | 8.54590 | 1398 ft | 111 kts | 139° |
| 2026-05-01 10:57 | 47.46997 | 8.55273 | 1385 ft | 85 kts | 138° |
| 2026-05-01 10:58 | 47.46660 | 8.55652 | 1404 ft | 44 kts | 160° |
| 2026-05-01 10:58 | 47.46477 | 8.55722 | 1398 ft | 22 kts | 166° |
| 2026-05-01 10:58 | 47.46369 | 8.55788 | 1406 ft | 12 kts | 131° |
| 2026-05-01 10:58 | 47.46324 | 8.55842 | 1407 ft | 7 kts | 140° |
| 2026-05-01 10:59 | 47.46291 | 8.55882 | 1404 ft | 5 kts | 143° |
| 2026-05-01 10:59 | 47.46268 | 8.55909 | 1402 ft | 3 kts | 139° |
| 2026-05-01 10:59 | 47.46261 | 8.55919 | 1402 ft | 1 kts | 138° |
| 2026-05-01 10:59 | 47.46257 | 8.55925 | 1410 ft | 1 kts | 136° |
| 2026-05-01 11:00 | 47.46246 | 8.55941 | 1408 ft | 4 kts | 133° |
| 2026-05-01 11:00 | 47.46218 | 8.55981 | 1410 ft | 7 kts | 148° |
| 2026-05-01 11:00 | 47.46184 | 8.55999 | 1405 ft | 4 kts | 173° |
| 2026-05-01 11:00 | 47.46152 | 8.55999 | 1413 ft | 6 kts | 186° |
| 2026-05-01 11:01 | 47.46097 | 8.55992 | 1410 ft | 9 kts | 184° |
| 2026-05-01 11:01 | 47.46039 | 8.55982 | 1406 ft | 9 kts | 188° |
| 2026-05-01 11:01 | 47.45970 | 8.55967 | 1408 ft | 10 kts | 192° |
| 2026-05-01 11:01 | 47.45905 | 8.55934 | 1415 ft | 9 kts | 200° |
| 2026-05-01 11:02 | 47.45858 | 8.55908 | 1411 ft | 6 kts | 199° |
| 2026-05-01 11:02 | 47.45831 | 8.55896 | 1409 ft | 1 kts | 196° |
| 2026-05-01 11:02 | 47.45828 | 8.55895 | 1409 ft | 0 kts | 197° |
| 2026-05-01 11:03 | 47.45810 | 8.55886 | 1409 ft | 10 kts | 197° |
| 2026-05-01 11:04 | 47.45700 | 8.55864 | 1411 ft | 18 kts | 186° |
| 2026-05-01 11:04 | 47.45568 | 8.55844 | 1413 ft | 19 kts | 185° |
| 2026-05-01 11:04 | 47.45495 | 8.55813 | 1409 ft | 6 kts | 184° |
| 2026-05-01 11:04 | 47.45455 | 8.55807 | 1412 ft | 6 kts | 186° |
| 2026-05-01 11:05 | 47.45429 | 8.55804 | 1409 ft | 1 kts | 186° |
| 2026-05-01 11:05 | 47.45426 | 8.55804 | 1406 ft | 0 kts | 186° |